Terminal Aerodrome Forecast
Issued by NWS Twin Cities, MN

Home | Current Version | Previous Version | Text Only | Print | Product List | Glossary Off
Versions: 1 2 3 4 5 6 7 8 9 10 11 12 13 14 15 16 17 18 19 20 21 22 23 24 25 26 27

000
FTUS43 KMPX 040900 AAA
TAFMSP
TAF AMD
KMSP 040900Z 0409/0512 20003KT 6SM HZ SCT040 BKN250
     FM041600 19006KT 6SM HZ SCT040 BKN250
     FM050600 18007KT P6SM SCT250=

USA.gov is the U.S. government's official web portal to all federal, state and local government web resources and services.